Sheffield Lake, Ohio
Current Conditions -  °F | °C
As of 7:53 PM on Monday 26 Jan 2015 (Local Time) from KLPR Reporting Station
Overcast Overcast  
Wind Chill: 12°   Ceiling: 2300
Heat Index: 19°   Visibility: 10mi
Dew Point: 11°   Wind: 5mph
Humidity: 71%   Direction: 360°N
Pressure: 29.93"   Gusts: NA
Location:  41.49°N, 82.09°W
Report Text: KLPR 270053Z AUTO 36004KT 10SM OVC023 M07/M12 A2993 RMK AO2 SLP149 T10721117 TSNO
Loading
Personal Weather Stations






























Interactive Weather Map New forecast layout! Learn more

10-Day Weather Forecast

Advertisements
Track Severe Weather on mobile